createdAt,value
2023-04-24T00:00:01.847Z,0
2023-04-24T00:01:17.967Z,0
2023-04-24T00:02:34.108Z,0
2023-04-24T00:03:50.240Z,0
2023-04-24T00:05:06.365Z,0
2023-04-24T00:06:22.524Z,0
2023-04-24T00:07:38.649Z,0
2023-04-24T00:08:54.791Z,0
2023-04-24T00:10:10.922Z,0
2023-04-24T00:11:27.043Z,0
2023-04-24T00:12:43.189Z,0
2023-04-24T00:13:59.326Z,0
2023-04-24T00:15:15.455Z,0
2023-04-24T00:16:31.606Z,0
2023-04-24T00:17:47.782Z,0
2023-04-24T00:19:03.025Z,0
2023-04-24T00:20:18.229Z,0
2023-04-24T00:21:33.386Z,0
2023-04-24T00:22:49.521Z,0
2023-04-24T00:24:05.659Z,0
2023-04-24T00:25:21.789Z,0
2023-04-24T00:26:37.919Z,0
2023-04-24T00:27:54.075Z,0
2023-04-24T00:29:10.198Z,0
2023-04-24T00:30:26.327Z,0
2023-04-24T00:31:42.455Z,0
2023-04-24T00:32:58.604Z,0
2023-04-24T00:34:14.740Z,0
2023-04-24T00:35:30.882Z,0
2023-04-24T00:36:47.022Z,0
2023-04-24T00:38:03.146Z,0
2023-04-24T00:39:19.275Z,0
2023-04-24T00:40:35.421Z,0
2023-04-24T00:41:51.554Z,0
2023-04-24T00:43:07.688Z,0
2023-04-24T00:44:23.824Z,0
2023-04-24T00:45:39.953Z,0
2023-04-24T00:46:56.110Z,0
2023-04-24T00:48:12.240Z,0
2023-04-24T00:49:28.365Z,0
2023-04-24T00:50:44.498Z,0
2023-04-24T00:52:00.638Z,0
2023-04-24T00:53:16.787Z,0
2023-04-24T00:54:32.922Z,0
2023-04-24T00:55:49.049Z,0
2023-04-24T00:57:05.185Z,0
2023-04-24T00:58:21.326Z,0
2023-04-24T00:59:37.466Z,0
2023-04-24T01:00:53.603Z,0
2023-04-24T01:02:09.741Z,0
2023-04-24T01:03:25.861Z,0
2023-04-24T01:04:42.000Z,0
2023-04-24T01:05:58.139Z,0
2023-04-24T01:07:14.269Z,0
2023-04-24T01:08:30.479Z,0
2023-04-24T01:09:45.719Z,0
2023-04-24T01:11:00.917Z,0
2023-04-24T01:12:17.055Z,0
2023-04-24T01:13:33.179Z,0
2023-04-24T01:14:49.311Z,0
2023-04-24T01:16:05.457Z,0
2023-04-24T01:17:21.607Z,0
2023-04-24T01:18:37.728Z,0
2023-04-24T01:19:53.862Z,0
2023-04-24T01:21:09.998Z,0
2023-04-24T01:22:26.143Z,0
2023-04-24T01:23:42.287Z,0
2023-04-24T01:24:58.418Z,0
2023-04-24T01:26:14.553Z,0
2023-04-24T01:27:30.677Z,0
2023-04-24T01:28:46.816Z,0
2023-04-24T01:30:02.968Z,0
2023-04-24T01:31:19.100Z,0
2023-04-24T01:32:35.229Z,0
2023-04-24T01:33:51.348Z,0
2023-04-24T01:35:07.497Z,0
2023-04-24T01:36:23.629Z,0
2023-04-24T01:37:39.778Z,0
2023-04-24T01:38:55.912Z,0
2023-04-24T01:40:12.042Z,0
2023-04-24T01:41:28.188Z,0
2023-04-24T01:42:44.379Z,0
2023-04-24T01:43:59.618Z,0
2023-04-24T01:45:15.812Z,0
2023-04-24T01:46:31.025Z,0
2023-04-24T01:47:47.143Z,0
2023-04-24T01:49:03.278Z,0
2023-04-24T01:50:19.410Z,0
2023-04-24T01:51:35.557Z,0
2023-04-24T01:52:51.695Z,0
2023-04-24T01:54:07.824Z,0
2023-04-24T01:55:23.964Z,0
2023-04-24T01:56:40.088Z,0
2023-04-24T01:57:56.243Z,0
2023-04-24T01:59:12.379Z,0
2023-04-24T02:00:28.509Z,0
2023-04-24T02:01:44.643Z,0
2023-04-24T02:03:00.778Z,0
2023-04-24T02:04:16.915Z,0
2023-04-24T02:05:33.047Z,0
2023-04-24T02:06:49.195Z,0
2023-04-24T02:08:05.320Z,0
2023-04-24T02:09:21.462Z,0
2023-04-24T02:10:37.596Z,0
2023-04-24T02:11:53.727Z,0
2023-04-24T02:13:09.861Z,0
2023-04-24T02:14:26.007Z,0
2023-04-24T02:15:42.141Z,0
2023-04-24T02:16:58.279Z,0
2023-04-24T02:18:14.480Z,0
2023-04-24T02:19:29.733Z,0
2023-04-24T02:20:44.944Z,0
2023-04-24T02:22:01.069Z,0
2023-04-24T02:23:17.209Z,0
2023-04-24T02:24:33.350Z,0
2023-04-24T02:25:49.470Z,0
2023-04-24T02:27:05.625Z,0
2023-04-24T02:28:21.761Z,0
2023-04-24T02:29:37.885Z,0
2023-04-24T02:30:54.024Z,0
2023-04-24T02:32:10.161Z,0
2023-04-24T02:33:26.295Z,0
2023-04-24T02:34:42.434Z,0
2023-04-24T02:35:58.565Z,0
2023-04-24T02:37:14.713Z,0
2023-04-24T02:38:30.844Z,0
2023-04-24T02:39:46.990Z,0
2023-04-24T02:41:03.117Z,0
2023-04-24T02:42:19.256Z,0
2023-04-24T02:43:35.386Z,0
2023-04-24T02:44:51.513Z,0
2023-04-24T02:46:07.672Z,0
2023-04-24T02:47:23.802Z,0
2023-04-24T02:48:39.929Z,0
2023-04-24T02:49:56.062Z,0
2023-04-24T02:51:12.205Z,0
2023-04-24T02:52:28.411Z,0
2023-04-24T02:53:43.654Z,0
2023-04-24T02:54:58.854Z,0
2023-04-24T02:56:14.995Z,0
2023-04-24T02:57:31.129Z,0
2023-04-24T02:58:47.257Z,0
2023-04-24T03:00:03.389Z,0
2023-04-24T03:01:19.524Z,0
2023-04-24T03:02:35.676Z,0
2023-04-24T03:03:51.816Z,0
2023-04-24T03:05:07.947Z,0
2023-04-24T03:06:24.072Z,0
2023-04-24T03:07:40.199Z,0
2023-04-24T03:08:56.351Z,0
2023-04-24T03:10:12.483Z,0
2023-04-24T03:11:28.627Z,0
2023-04-24T03:12:44.762Z,0
2023-04-24T03:14:00.895Z,0
2023-04-24T03:15:17.045Z,0
2023-04-24T03:16:33.181Z,0
2023-04-24T03:17:49.297Z,0
2023-04-24T03:19:05.437Z,0
2023-04-24T03:20:21.576Z,0
2023-04-24T03:21:37.714Z,0
2023-04-24T03:22:53.844Z,0
2023-04-24T03:24:09.987Z,0
2023-04-24T03:25:26.119Z,0
2023-04-24T03:26:42.313Z,0
2023-04-24T03:27:57.557Z,0
2023-04-24T03:29:13.736Z,0
2023-04-24T03:30:28.958Z,0
2023-04-24T03:31:45.093Z,0
2023-04-24T03:33:01.217Z,4
2023-04-24T03:34:17.362Z,4
2023-04-24T03:35:33.486Z,4
2023-04-24T03:36:49.624Z,0
2023-04-24T03:38:05.779Z,4
2023-04-24T03:39:21.904Z,4
2023-04-24T03:40:38.036Z,4
2023-04-24T03:41:54.000Z,8
2023-04-24T03:43:10.312Z,8
2023-04-24T03:44:26.457Z,8
2023-04-24T03:45:42.587Z,12
2023-04-24T03:46:58.717Z,16
2023-04-24T03:48:14.856Z,16
2023-04-24T03:49:30.991Z,16
2023-04-24T03:50:47.141Z,20
2023-04-24T03:52:03.281Z,24
2023-04-24T03:53:19.403Z,28
2023-04-24T03:54:35.538Z,28
2023-04-24T03:55:51.671Z,32
2023-04-24T03:57:07.812Z,32
2023-04-24T03:58:23.946Z,36
2023-04-24T03:59:40.088Z,40
2023-04-24T04:00:56.212Z,44
2023-04-24T04:02:12.421Z,48
2023-04-24T04:03:27.647Z,56
2023-04-24T04:04:42.862Z,60
2023-04-24T04:05:58.983Z,68
2023-04-24T04:07:15.137Z,72
2023-04-24T04:08:31.272Z,76
2023-04-24T04:09:47.411Z,84
2023-04-24T04:11:03.537Z,96
2023-04-24T04:12:19.672Z,104
2023-04-24T04:13:35.852Z,112
2023-04-24T04:14:51.959Z,124
2023-04-24T04:16:08.095Z,132
2023-04-24T04:17:24.230Z,144
2023-04-24T04:18:40.356Z,156
2023-04-24T04:19:56.497Z,176
2023-04-24T04:21:12.633Z,192
2023-04-24T04:22:28.774Z,224
2023-04-24T04:25:01.031Z,304
2023-04-24T04:26:17.187Z,344
2023-04-24T04:27:33.327Z,372
2023-04-24T04:28:49.448Z,412
2023-04-24T04:30:05.588Z,420
2023-04-24T04:31:21.726Z,428
2023-04-24T04:32:37.868Z,436
2023-04-24T04:33:54.000Z,464
2023-04-24T04:35:10.128Z,532
2023-04-24T04:36:26.331Z,608
2023-04-24T04:37:41.565Z,660
2023-04-24T04:38:56.770Z,648
2023-04-24T04:40:11.932Z,596
2023-04-24T04:41:28.067Z,612
2023-04-24T04:42:44.205Z,700
2023-04-24T04:44:00.346Z,800
2023-04-24T04:45:16.478Z,876
2023-04-24T04:46:32.609Z,896
2023-04-24T04:47:48.746Z,876
2023-04-24T04:49:04.895Z,844
2023-04-24T04:50:21.023Z,840
2023-04-24T04:51:37.154Z,836
2023-04-24T04:52:53.294Z,860
2023-04-24T04:54:09.428Z,888
2023-04-24T04:55:25.573Z,924
2023-04-24T04:56:41.693Z,948
2023-04-24T04:57:57.832Z,964
2023-04-24T04:59:13.969Z,964
2023-04-24T05:00:30.118Z,956
2023-04-24T05:01:46.250Z,948
2023-04-24T05:03:02.391Z,920
2023-04-24T05:04:18.518Z,920
2023-04-24T05:05:34.653Z,952
2023-04-24T05:06:50.794Z,972
2023-04-24T05:08:06.925Z,988
2023-04-24T05:09:23.071Z,980
2023-04-24T05:10:39.208Z,1012
2023-04-24T05:11:55.324Z,1060
2023-04-24T05:13:11.481Z,1096
2023-04-24T05:14:27.611Z,1128
2023-04-24T05:15:43.740Z,1156
2023-04-24T05:16:59.880Z,1236
2023-04-24T05:18:16.017Z,1272
2023-04-24T05:19:32.159Z,1320
2023-04-24T05:20:48.300Z,1428
2023-04-24T05:22:04.431Z,1524
2023-04-24T05:23:20.554Z,1448
2023-04-24T05:24:36.690Z,1316
2023-04-24T05:25:52.836Z,1196
2023-04-24T05:27:09.043Z,1144
2023-04-24T05:28:24.285Z,1192
2023-04-24T05:29:39.489Z,1312
2023-04-24T05:30:55.607Z,1216
2023-04-24T05:32:11.741Z,1336
2023-04-24T05:33:27.889Z,1328
2023-04-24T05:34:44.013Z,1440
2023-04-24T05:36:00.161Z,1844
2023-04-24T05:37:16.306Z,1988
2023-04-24T05:38:32.421Z,2016
2023-04-24T05:39:48.566Z,2060
2023-04-24T05:41:04.697Z,1924
2023-04-24T05:42:20.841Z,1668
2023-04-24T05:43:36.968Z,1740
2023-04-24T05:44:53.099Z,2076
2023-04-24T05:46:09.249Z,2368
2023-04-24T05:47:25.366Z,2504
2023-04-24T05:48:41.521Z,2868
2023-04-24T05:49:57.660Z,3232
2023-04-24T05:51:13.796Z,3468
2023-04-24T05:52:29.928Z,3408
2023-04-24T05:53:46.048Z,3264
2023-04-24T05:55:02.207Z,3076
2023-04-24T05:56:18.330Z,3128
2023-04-24T05:57:34.465Z,3068
2023-04-24T05:58:50.608Z,2888
2023-04-24T06:00:06.740Z,2588
2023-04-24T06:01:22.942Z,2348
2023-04-24T06:02:38.179Z,2192
2023-04-24T06:03:54.376Z,2080
2023-04-24T06:05:09.574Z,2224
2023-04-24T06:06:25.705Z,2528
2023-04-24T06:07:41.853Z,2816
2023-04-24T06:08:57.986Z,3212
2023-04-24T06:10:14.106Z,3832
2023-04-24T06:11:30.271Z,4308
2023-04-24T06:12:46.401Z,4136
2023-04-24T06:14:02.522Z,3844
2023-04-24T06:15:18.663Z,3576
2023-04-24T06:16:34.798Z,3400
2023-04-24T06:17:50.947Z,3028
2023-04-24T06:19:07.074Z,2704
2023-04-24T06:20:23.211Z,2648
2023-04-24T06:21:39.347Z,2624
2023-04-24T06:22:55.467Z,2760
2023-04-24T06:24:11.632Z,3012
2023-04-24T06:25:27.762Z,3208
2023-04-24T06:26:43.883Z,3344
2023-04-24T06:28:00.018Z,3456
2023-04-24T06:29:16.147Z,2368
2023-04-24T06:30:32.313Z,1612
2023-04-24T06:31:48.431Z,1652
2023-04-24T06:33:04.578Z,1932
2023-04-24T06:34:20.704Z,2432
2023-04-24T06:35:36.838Z,2516
2023-04-24T06:36:53.035Z,2000
2023-04-24T06:38:08.311Z,2096
2023-04-24T06:39:23.514Z,2160
2023-04-24T06:40:39.658Z,2576
2023-04-24T06:41:55.792Z,1752
2023-04-24T06:43:11.919Z,1736
2023-04-24T06:44:28.051Z,1520
2023-04-24T06:45:44.176Z,1516
2023-04-24T06:47:00.337Z,1400
2023-04-24T06:48:16.477Z,1536
2023-04-24T06:49:32.607Z,1520
2023-04-24T06:50:48.729Z,1308
2023-04-24T06:52:04.857Z,1272
2023-04-24T06:53:21.022Z,1712
2023-04-24T06:54:37.142Z,2772
2023-04-24T06:55:53.273Z,2812
2023-04-24T06:57:09.414Z,2996
2023-04-24T06:58:25.548Z,1980
2023-04-24T06:59:41.689Z,1368
2023-04-24T07:00:57.822Z,1020
2023-04-24T07:02:13.965Z,880
2023-04-24T07:03:30.096Z,948
2023-04-24T07:04:46.232Z,972
2023-04-24T07:06:02.375Z,1460
2023-04-24T07:07:18.508Z,2972
2023-04-24T07:08:34.652Z,3204
2023-04-24T07:09:50.770Z,2200
2023-04-24T07:11:06.973Z,1964
2023-04-24T07:12:23.164Z,1240
2023-04-24T07:13:38.366Z,1016
2023-04-24T07:14:53.524Z,1648
2023-04-24T07:16:09.656Z,1812
2023-04-24T07:17:25.805Z,1356
2023-04-24T07:18:41.930Z,840
2023-04-24T07:19:58.069Z,960
2023-04-24T07:21:14.202Z,1432
2023-04-24T07:22:30.350Z,2172
2023-04-24T07:23:46.473Z,2844
2023-04-24T07:25:02.611Z,4388
2023-04-24T07:26:18.752Z,16388
2023-04-24T07:27:34.887Z,39072
2023-04-24T07:28:51.032Z,11372
2023-04-24T07:30:07.156Z,12328
2023-04-24T07:31:23.289Z,6576
2023-04-24T07:32:39.432Z,7396
2023-04-24T07:33:55.560Z,5432
2023-04-24T07:35:11.714Z,4876
2023-04-24T07:36:27.840Z,3832
2023-04-24T07:37:43.965Z,4060
2023-04-24T07:39:00.113Z,9724
2023-04-24T07:40:16.230Z,9096
2023-04-24T07:41:32.389Z,6260
2023-04-24T07:42:48.521Z,3552
2023-04-24T07:44:04.647Z,3208
2023-04-24T07:45:20.778Z,3344
2023-04-24T07:46:36.920Z,2692
2023-04-24T07:47:53.073Z,2072
2023-04-24T07:49:09.198Z,2260
2023-04-24T07:50:25.345Z,1512
2023-04-24T07:51:41.478Z,972
2023-04-24T07:52:57.611Z,1172
2023-04-24T07:54:13.748Z,1484
2023-04-24T07:55:29.886Z,1484
2023-04-24T07:56:46.025Z,1468
2023-04-24T07:58:02.156Z,1576
2023-04-24T07:59:18.285Z,1284
2023-04-24T08:00:34.424Z,1052
2023-04-24T08:01:50.626Z,1360
2023-04-24T08:03:05.868Z,1728
2023-04-24T08:04:21.060Z,1556
2023-04-24T08:05:37.205Z,1800
2023-04-24T08:06:53.341Z,2384
2023-04-24T08:08:09.469Z,2052
2023-04-24T08:09:25.598Z,1876
2023-04-24T08:10:41.753Z,2132
2023-04-24T08:11:57.892Z,2272
2023-04-24T08:13:14.009Z,2124
2023-04-24T08:14:30.142Z,1596
2023-04-24T08:15:46.285Z,1676
2023-04-24T08:18:18.576Z,740
2023-04-24T08:19:34.703Z,516
2023-04-24T08:20:50.841Z,604
2023-04-24T08:22:06.957Z,588
2023-04-24T08:23:23.118Z,516
2023-04-24T08:24:39.248Z,588
2023-04-24T08:25:55.389Z,776
2023-04-24T08:27:11.504Z,1140
2023-04-24T08:28:27.636Z,1772
2023-04-24T08:29:43.791Z,2844
2023-04-24T08:30:59.929Z,4488
2023-04-24T08:32:16.053Z,3328
2023-04-24T08:33:32.199Z,3260
2023-04-24T08:34:48.329Z,3240
2023-04-24T08:36:04.540Z,2916
2023-04-24T08:37:19.764Z,2676
2023-04-24T08:38:35.954Z,2016
2023-04-24T08:39:51.180Z,1784
2023-04-24T08:41:07.311Z,1728
2023-04-24T08:42:23.430Z,1568
2023-04-24T08:43:39.564Z,1488
2023-04-24T08:44:55.696Z,1560
2023-04-24T08:46:11.850Z,1840
2023-04-24T08:47:27.993Z,2016
2023-04-24T08:48:44.111Z,1828
2023-04-24T08:50:00.242Z,1640
2023-04-24T08:51:16.513Z,2032
2023-04-24T08:52:32.651Z,2768
2023-04-24T08:53:48.778Z,4268
2023-04-24T08:55:04.924Z,6152
2023-04-24T08:56:21.062Z,63904
2023-04-24T08:57:37.194Z,10804
2023-04-24T08:58:53.332Z,16488
2023-04-24T09:00:09.471Z,21792
2023-04-24T09:01:25.607Z,20480
2023-04-24T09:02:41.000Z,12332
2023-04-24T09:03:57.871Z,24416
2023-04-24T09:05:14.007Z,24480
2023-04-24T09:06:30.142Z,81888
2023-04-24T09:07:46.276Z,75808
2023-04-24T09:09:02.419Z,74368
2023-04-24T09:10:18.554Z,78304
2023-04-24T09:11:34.696Z,80992
2023-04-24T09:12:50.823Z,82400
2023-04-24T09:14:06.960Z,87808
2023-04-24T09:15:23.094Z,87040
2023-04-24T09:16:39.229Z,94816
2023-04-24T09:17:55.371Z,105312
2023-04-24T09:19:11.506Z,119648
2023-04-24T09:20:27.643Z,117696
2023-04-24T09:21:43.777Z,100608
2023-04-24T09:22:59.911Z,72000
2023-04-24T09:24:16.057Z,47776
2023-04-24T09:25:32.196Z,27136
2023-04-24T09:26:48.334Z,8760
2023-04-24T09:28:04.458Z,21696
2023-04-24T09:29:20.592Z,22112
2023-04-24T09:30:36.741Z,24544
2023-04-24T09:31:52.889Z,23936
2023-04-24T09:33:09.007Z,22208
2023-04-24T09:34:25.146Z,23584
2023-04-24T09:35:41.273Z,22784
2023-04-24T09:36:57.435Z,23040
2023-04-24T09:38:13.616Z,23136
2023-04-24T09:39:28.828Z,23264
2023-04-24T09:40:44.963Z,23200
2023-04-24T09:42:01.109Z,23392
2023-04-24T09:43:17.256Z,23648
2023-04-24T09:44:33.379Z,24160
2023-04-24T09:45:49.518Z,25088
2023-04-24T09:47:05.651Z,26976
2023-04-24T09:48:21.791Z,7800
2023-04-24T09:49:37.942Z,28320
2023-04-24T09:50:54.075Z,27104
2023-04-24T09:52:10.329Z,11948
2023-04-24T09:53:26.450Z,31328
2023-04-24T09:54:42.612Z,29344
2023-04-24T09:55:58.741Z,29056
2023-04-24T09:57:14.878Z,29856
2023-04-24T09:58:31.011Z,30432
2023-04-24T09:59:47.153Z,32992
2023-04-24T10:01:03.298Z,34560
2023-04-24T10:02:19.435Z,33504
2023-04-24T10:03:35.559Z,7812
2023-04-24T10:04:51.698Z,12364
2023-04-24T10:06:07.834Z,40992
2023-04-24T10:07:23.985Z,17380
2023-04-24T10:08:40.110Z,13956
2023-04-24T10:09:56.242Z,40000
2023-04-24T10:12:28.511Z,7736
2023-04-24T10:13:44.670Z,38144
2023-04-24T10:15:00.800Z,37984
2023-04-24T10:16:16.944Z,38240
2023-04-24T10:17:33.065Z,10904
2023-04-24T10:18:49.210Z,39264
2023-04-24T10:20:05.356Z,40320
2023-04-24T10:21:21.479Z,40960
2023-04-24T10:22:37.631Z,41152
2023-04-24T10:23:53.747Z,44480
2023-04-24T10:25:09.886Z,43200
2023-04-24T10:26:26.036Z,43040
2023-04-24T10:27:42.173Z,42528
2023-04-24T10:28:58.311Z,43072
2023-04-24T10:30:14.448Z,43488
2023-04-24T10:31:30.723Z,43968
2023-04-24T10:32:46.864Z,44320
2023-04-24T10:34:03.014Z,44896
2023-04-24T10:35:19.144Z,45152
2023-04-24T10:36:35.281Z,45344
2023-04-24T10:37:51.400Z,43072
2023-04-24T10:39:07.565Z,32224
2023-04-24T10:40:23.687Z,30080
2023-04-24T10:41:39.837Z,48192
2023-04-24T10:42:55.966Z,20832
2023-04-24T10:44:12.094Z,17224
2023-04-24T10:45:28.250Z,49248
2023-04-24T10:46:44.383Z,49504
2023-04-24T10:48:00.525Z,49504
2023-04-24T10:49:16.656Z,10044
2023-04-24T10:50:32.779Z,44864
2023-04-24T10:51:48.932Z,9004
2023-04-24T10:53:05.063Z,7220
2023-04-24T10:54:21.202Z,5752
2023-04-24T10:55:37.340Z,5320
2023-04-24T10:56:53.475Z,4448
2023-04-24T10:58:09.613Z,3896
2023-04-24T10:59:25.761Z,3672
2023-04-24T11:00:41.892Z,3088
2023-04-24T11:01:58.034Z,2536
2023-04-24T11:03:14.319Z,2768
2023-04-24T11:04:30.447Z,2872
2023-04-24T11:05:46.594Z,2604
2023-04-24T11:07:02.713Z,2440
2023-04-24T11:08:18.861Z,2748
2023-04-24T11:09:34.984Z,3484
2023-04-24T11:10:51.142Z,3692
2023-04-24T11:12:07.271Z,4340
2023-04-24T11:13:23.412Z,3980
2023-04-24T11:14:39.535Z,3668
2023-04-24T11:15:55.663Z,4816
2023-04-24T11:17:11.812Z,6932
2023-04-24T11:18:27.952Z,7776
2023-04-24T11:19:44.077Z,9644
2023-04-24T11:21:00.228Z,37312
2023-04-24T11:22:16.365Z,12408
2023-04-24T11:23:32.509Z,9768
2023-04-24T11:24:48.642Z,9844
2023-04-24T11:26:04.778Z,9276
2023-04-24T11:27:20.915Z,8276
2023-04-24T11:28:37.039Z,7876
2023-04-24T11:29:53.183Z,6592
2023-04-24T11:31:09.329Z,6176
2023-04-24T11:32:25.458Z,6264
2023-04-24T11:33:41.582Z,6332
2023-04-24T11:34:57.780Z,6216
2023-04-24T11:36:12.990Z,9964
2023-04-24T11:37:29.123Z,8568
2023-04-24T11:38:45.261Z,8136
2023-04-24T11:40:01.386Z,7104
2023-04-24T11:41:17.530Z,7104
2023-04-24T11:42:33.670Z,8456
2023-04-24T11:43:49.797Z,8080
2023-04-24T11:45:05.943Z,10160
2023-04-24T11:46:22.069Z,9396
2023-04-24T11:47:38.221Z,8156
2023-04-24T11:48:54.354Z,7328
2023-04-24T11:50:10.482Z,7616
2023-04-24T11:51:26.629Z,7188
2023-04-24T11:52:42.758Z,7944
2023-04-24T11:53:58.894Z,7084
2023-04-24T11:55:15.046Z,6364
2023-04-24T11:56:31.164Z,5220
2023-04-24T11:57:47.307Z,4080
2023-04-24T11:59:03.442Z,4636
2023-04-24T12:00:19.588Z,5900
2023-04-24T12:01:35.719Z,6088
2023-04-24T12:02:51.846Z,5544
2023-04-24T12:04:07.977Z,5156
2023-04-24T12:05:24.124Z,6436
2023-04-24T12:06:40.274Z,6912
2023-04-24T12:07:56.462Z,6568
2023-04-24T12:09:11.704Z,5792
2023-04-24T12:10:26.909Z,5204
2023-04-24T12:11:43.056Z,5208
2023-04-24T12:12:59.174Z,5864
2023-04-24T12:14:15.313Z,5772
2023-04-24T12:15:31.430Z,6376
2023-04-24T12:16:47.595Z,7796
2023-04-24T12:18:03.728Z,7888
2023-04-24T12:19:19.862Z,7836
2023-04-24T12:20:35.995Z,7604
2023-04-24T12:21:52.118Z,6932
2023-04-24T12:23:08.276Z,6204
2023-04-24T12:24:24.401Z,4904
2023-04-24T12:25:40.528Z,5320
2023-04-24T12:26:56.667Z,6988
2023-04-24T12:28:12.809Z,6844
2023-04-24T12:29:28.951Z,8120
2023-04-24T12:30:45.082Z,8736
2023-04-24T12:32:01.217Z,7964
2023-04-24T12:33:17.472Z,4976
2023-04-24T12:34:33.601Z,3940
2023-04-24T12:35:49.755Z,3784
2023-04-24T12:37:05.883Z,3908
2023-04-24T12:38:22.031Z,3536
2023-04-24T12:39:38.151Z,3108
2023-04-24T12:40:54.288Z,3736
2023-04-24T12:42:10.446Z,4396
2023-04-24T12:43:26.563Z,4012
2023-04-24T12:44:42.706Z,4892
2023-04-24T12:45:58.833Z,7272
2023-04-24T12:47:14.978Z,6716
2023-04-24T12:48:31.112Z,6432
2023-04-24T12:49:47.256Z,5652
2023-04-24T12:51:03.390Z,4732
2023-04-24T12:52:19.518Z,3584
2023-04-24T12:53:35.654Z,2712
2023-04-24T12:54:51.808Z,5068
2023-04-24T12:56:07.927Z,8268
2023-04-24T12:57:24.074Z,7860
2023-04-24T12:58:40.194Z,5576
2023-04-24T12:59:56.336Z,3792
2023-04-24T13:01:12.486Z,2848
2023-04-24T13:02:28.622Z,2600
2023-04-24T13:03:44.761Z,2768
2023-04-24T13:05:00.891Z,2800
2023-04-24T13:06:17.015Z,3236
2023-04-24T13:07:33.160Z,4788
2023-04-24T13:08:49.298Z,6472
2023-04-24T13:10:05.424Z,6604
2023-04-24T13:11:21.562Z,6776
2023-04-24T13:12:37.694Z,6860
2023-04-24T13:13:53.841Z,6828
2023-04-24T13:15:09.986Z,5992
2023-04-24T13:16:26.111Z,4440
2023-04-24T13:17:42.256Z,4096
2023-04-24T13:18:58.386Z,3392
2023-04-24T13:20:14.584Z,3220
2023-04-24T13:21:29.826Z,2832
2023-04-24T13:22:45.030Z,2568
2023-04-24T13:24:01.172Z,1856
2023-04-24T13:25:17.319Z,1380
2023-04-24T13:26:33.442Z,1232
2023-04-24T13:29:05.722Z,3896
2023-04-24T13:30:21.857Z,3968
2023-04-24T13:31:38.004Z,2668
2023-04-24T13:32:54.258Z,2196
2023-04-24T13:34:10.386Z,2196
2023-04-24T13:35:26.515Z,2616
2023-04-24T13:36:42.660Z,3376
2023-04-24T13:37:58.796Z,4340
2023-04-24T13:39:14.934Z,5148
2023-04-24T13:40:31.072Z,5472
2023-04-24T13:41:47.202Z,5400
2023-04-24T13:43:03.342Z,5504
2023-04-24T13:44:19.483Z,5368
2023-04-24T13:45:35.621Z,5348
2023-04-24T13:46:51.756Z,5300
2023-04-24T13:48:07.874Z,5144
2023-04-24T13:49:24.020Z,5140
2023-04-24T13:50:40.156Z,5456
2023-04-24T13:51:56.298Z,5992
2023-04-24T13:53:12.432Z,6304
2023-04-24T13:54:28.570Z,6088
2023-04-24T13:55:44.704Z,4760
2023-04-24T13:57:00.843Z,3088
2023-04-24T13:58:16.971Z,3368
2023-04-24T13:59:33.103Z,3960
2023-04-24T14:00:49.251Z,3920
2023-04-24T14:02:05.399Z,4420
2023-04-24T14:03:21.515Z,4720
2023-04-24T14:04:37.661Z,5468
2023-04-24T14:05:53.798Z,6292
2023-04-24T14:07:09.933Z,5764
2023-04-24T14:08:26.063Z,4660
2023-04-24T14:09:42.216Z,3664
2023-04-24T14:10:58.337Z,3324
2023-04-24T14:12:14.480Z,4404
2023-04-24T14:13:30.609Z,5540
2023-04-24T14:14:46.746Z,4268
2023-04-24T14:16:02.888Z,4292
2023-04-24T14:17:19.015Z,3972
2023-04-24T14:18:35.152Z,4500
2023-04-24T14:19:51.350Z,3912
2023-04-24T14:21:06.563Z,2856
2023-04-24T14:22:22.693Z,2484
2023-04-24T14:23:38.814Z,2332
2023-04-24T14:24:54.963Z,2564
2023-04-24T14:26:11.107Z,3556
2023-04-24T14:27:27.230Z,4600
2023-04-24T14:28:43.378Z,3180
2023-04-24T14:29:59.494Z,1396
2023-04-24T14:31:15.627Z,988
2023-04-24T14:32:31.773Z,1140
2023-04-24T14:33:47.911Z,1552
2023-04-24T14:35:04.054Z,1516
2023-04-24T14:36:20.172Z,1216
2023-04-24T14:37:36.322Z,1808
2023-04-24T14:38:52.467Z,2040
2023-04-24T14:40:08.587Z,2396
2023-04-24T14:41:24.732Z,2796
2023-04-24T14:42:40.856Z,3396
2023-04-24T14:43:56.987Z,2664
2023-04-24T14:45:13.134Z,2404
2023-04-24T14:46:29.282Z,2328
2023-04-24T14:47:45.405Z,2460
2023-04-24T14:49:01.546Z,3580
2023-04-24T14:50:17.677Z,3568
2023-04-24T14:51:33.825Z,2088
2023-04-24T14:52:50.006Z,1636
2023-04-24T14:54:05.244Z,1704
2023-04-24T14:55:20.460Z,1624
2023-04-24T14:56:36.586Z,1988
2023-04-24T14:57:52.729Z,2156
2023-04-24T14:59:08.865Z,1704
2023-04-24T15:00:24.995Z,1668
2023-04-24T15:01:41.141Z,1432
2023-04-24T15:02:57.280Z,1712
2023-04-24T15:04:13.407Z,1984
2023-04-24T15:05:29.532Z,1612
2023-04-24T15:06:45.680Z,1240
2023-04-24T15:08:01.829Z,936
2023-04-24T15:09:17.957Z,804
2023-04-24T15:10:34.088Z,804
2023-04-24T15:11:50.350Z,1052
2023-04-24T15:13:06.479Z,1048
2023-04-24T15:14:22.623Z,1084
2023-04-24T15:15:38.766Z,1352
2023-04-24T15:16:54.903Z,1868
2023-04-24T15:18:11.029Z,1680
2023-04-24T15:19:27.161Z,1496
2023-04-24T15:20:43.317Z,1448
2023-04-24T15:21:59.439Z,1536
2023-04-24T15:23:15.580Z,1992
2023-04-24T15:24:31.717Z,2236
2023-04-24T15:25:47.847Z,1864
2023-04-24T15:27:03.982Z,1952
2023-04-24T15:28:20.134Z,1932
2023-04-24T15:29:36.265Z,2112
2023-04-24T15:30:52.386Z,2428
2023-04-24T15:32:08.524Z,2288
2023-04-24T15:33:24.676Z,1716
2023-04-24T15:34:40.804Z,1620
2023-04-24T15:35:56.937Z,1432
2023-04-24T15:37:13.065Z,1364
2023-04-24T15:38:29.197Z,1472
2023-04-24T15:39:45.364Z,1516
2023-04-24T15:41:01.486Z,1688
2023-04-24T15:42:17.614Z,1884
2023-04-24T15:43:33.763Z,1844
2023-04-24T15:44:49.878Z,2180
2023-04-24T15:46:06.029Z,2244
2023-04-24T15:47:22.176Z,1736
2023-04-24T15:48:38.295Z,1804
2023-04-24T15:49:54.439Z,1952
2023-04-24T15:51:10.573Z,2412
2023-04-24T15:52:26.721Z,2372
2023-04-24T15:53:42.858Z,1528
2023-04-24T15:54:58.984Z,1816
2023-04-24T15:56:15.109Z,1832
2023-04-24T15:57:31.258Z,1736
2023-04-24T15:58:47.459Z,1928
2023-04-24T16:00:02.707Z,1812
2023-04-24T16:01:17.915Z,1996
2023-04-24T16:02:34.075Z,1508
2023-04-24T16:03:50.204Z,1324
2023-04-24T16:05:06.323Z,1088
2023-04-24T16:06:22.456Z,860
2023-04-24T16:07:38.593Z,996
2023-04-24T16:08:54.754Z,980
2023-04-24T16:10:10.886Z,1020
2023-04-24T16:11:27.006Z,1172
2023-04-24T16:12:43.148Z,1844
2023-04-24T16:13:59.279Z,2228
2023-04-24T16:15:15.433Z,2488
2023-04-24T16:16:31.559Z,2256
2023-04-24T16:17:47.692Z,2788
2023-04-24T16:19:03.823Z,2680
2023-04-24T16:20:19.957Z,2420
2023-04-24T16:21:36.115Z,2320
2023-04-24T16:22:52.244Z,1732
2023-04-24T16:24:08.000Z,1764
2023-04-24T16:25:24.508Z,1464
2023-04-24T16:26:40.639Z,2152
2023-04-24T16:27:56.792Z,1472
2023-04-24T16:29:12.931Z,1536
2023-04-24T16:30:29.055Z,1608
2023-04-24T16:31:45.188Z,1344
2023-04-24T16:33:01.382Z,1752
2023-04-24T16:34:16.626Z,1660
2023-04-24T16:35:31.835Z,1668
2023-04-24T16:36:47.954Z,1916
2023-04-24T16:38:04.099Z,1768
2023-04-24T16:39:20.232Z,1592
2023-04-24T16:40:36.369Z,2120
2023-04-24T16:41:52.516Z,2232
2023-04-24T16:43:08.645Z,2428
2023-04-24T16:44:24.796Z,1824
2023-04-24T16:45:40.930Z,1500
2023-04-24T16:46:57.049Z,1832
2023-04-24T16:48:13.187Z,1648
2023-04-24T16:49:29.314Z,1368
2023-04-24T16:50:45.467Z,1460
2023-04-24T16:52:01.596Z,1648
2023-04-24T16:53:17.737Z,1632
2023-04-24T16:54:33.866Z,1532
2023-04-24T16:55:50.014Z,1376
2023-04-24T16:57:06.148Z,1248
2023-04-24T16:58:22.281Z,1124
2023-04-24T16:59:38.412Z,1204
2023-04-24T17:00:54.551Z,1176
2023-04-24T17:02:10.691Z,1092
2023-04-24T17:03:26.824Z,968
2023-04-24T17:04:42.960Z,976
2023-04-24T17:05:59.101Z,1092
2023-04-24T17:07:15.287Z,964
2023-04-24T17:08:30.522Z,792
2023-04-24T17:09:45.741Z,588
2023-04-24T17:11:00.893Z,812
2023-04-24T17:12:17.039Z,872
2023-04-24T17:13:33.180Z,708
2023-04-24T17:14:49.297Z,812
2023-04-24T17:16:05.433Z,616
2023-04-24T17:17:21.565Z,928
2023-04-24T17:18:37.727Z,1060
2023-04-24T17:19:53.859Z,920
2023-04-24T17:21:09.992Z,640